Terminal Aerodrome Forecast
Issued by NWS

Home | Current Version | Previous Version | Text Only | Print | Product List | Glossary On
Versions: 1 2 3 4 5 6 7 8 9 10 11 12 13 14 15 16 17 18
000
FTUS43 KMQT 302321
TAFCMX
TAF
KCMX 302321Z 3100/3124 11005KT P6SM SCT150
     FM311200 11007KT 4SM -SN OVC030
     FM311500 09007KT 2SM -SN OVC007
     FM311900 04003KT P6SM VCSH OVC012=

USA.gov is the U.S. government's official web portal to all federal, state and local government web resources and services.